Time;durP1;ratioP1;P1;durP2;ratioP2;P2;SDS_P1;SDS_P2;PMS_P1;PMS_P2;Temp;Humidity;BMP_temperature;BMP_pressure;BME280_temperature;BME280_humidity;BME280_pressure;Samples;Min_cycle;Max_cycle;Signal;HPM_P1;HPM_P2
2021/07/31 00:00:06;;;;;;;9.93;7.28;;;;;;;13.44;100.00;92744.25;2105228;28;20035;-86
2021/07/31 00:01:08;;;;;;;7.15;6.45;;;;;;;13.50;100.00;92750.50;2094003;28;20028;-86
2021/07/31 00:02:09;;;;;;;8.73;7.40;;;;;;;13.53;100.00;92743.53;2103120;28;20051;-86
2021/07/31 00:03:10;;;;;;;9.30;6.75;;;;;;;13.51;100.00;92745.88;2104288;28;20016;-85
2021/07/31 00:04:11;;;;;;;6.90;6.20;;;;;;;13.49;100.00;92751.72;2110073;28;20027;-86
2021/07/31 00:05:13;;;;;;;8.38;6.40;;;;;;;13.50;100.00;92750.50;2095955;28;20443;-86
2021/07/31 00:06:14;;;;;;;7.72;7.03;;;;;;;13.51;100.00;92743.94;2098181;28;20067;-86
2021/07/31 00:07:15;;;;;;;10.55;7.28;;;;;;;13.46;100.00;92743.78;2099320;28;20074;-86
2021/07/31 00:08:16;;;;;;;7.28;6.57;;;;;;;13.50;100.00;92739.78;2105895;28;20484;-87
2021/07/31 00:09:17;;;;;;;10.30;6.95;;;;;;;13.56;100.00;92748.75;2111870;28;20074;-86
2021/07/31 00:10:18;;;;;;;9.15;6.65;;;;;;;13.53;100.00;92743.53;2113672;28;20023;-86
2021/07/31 00:11:19;;;;;;;7.38;6.63;;;;;;;13.55;100.00;92735.75;2096684;28;20025;-86
2021/07/31 00:12:19;;;;;;;8.15;7.28;;;;;;;13.55;100.00;92736.50;2097712;28;20039;-86
2021/07/31 00:13:21;;;;;;;8.68;7.40;;;;;;;13.60;100.00;92743.22;2096187;28;20673;-85
2021/07/31 00:14:22;;;;;;;9.05;7.30;;;;;;;13.60;100.00;92738.59;2097594;28;20488;-87
2021/07/31 00:15:23;;;;;;;8.02;6.78;;;;;;;13.60;100.00;92737.84;2104856;28;20050;-86
2021/07/31 00:16:24;;;;;;;7.35;6.65;;;;;;;13.61;100.00;92736.69;2106185;28;20500;-86
2021/07/31 00:17:25;;;;;;;7.10;6.40;;;;;;;13.62;100.00;92740.13;2095131;28;20024;-87
2021/07/31 00:18:26;;;;;;;9.80;6.72;;;;;;;13.54;100.00;92740.38;2107327;28;20055;-85
2021/07/31 00:19:27;;;;;;;7.53;6.82;;;;;;;13.58;100.00;92732.94;2100894;28;20378;-87
2021/07/31 00:20:28;;;;;;;7.53;6.45;;;;;;;13.57;100.00;92739.50;2095416;28;20377;-86
2021/07/31 00:21:28;;;;;;;7.88;7.18;;;;;;;13.58;100.00;92743.69;2093128;28;20889;-87
2021/07/31 00:22:29;;;;;;;7.57;6.40;;;;;;;13.55;100.00;92743.81;2103755;28;20028;-87
2021/07/31 00:23:30;;;;;;;9.45;6.85;;;;;;;13.50;100.00;92729.03;2103049;28;20021;-86
2021/07/31 00:24:31;;;;;;;9.52;6.68;;;;;;;13.55;100.00;92736.50;2103797;28;20019;-87
2021/07/31 00:25:32;;;;;;;6.30;5.70;;;;;;;13.53;100.00;92735.47;2112426;28;20020;-87
2021/07/31 00:26:33;;;;;;;8.32;6.72;;;;;;;13.47;100.00;92732.59;2103320;28;20024;-84
2021/07/31 00:27:34;;;;;;;7.65;6.03;;;;;;;13.49;100.00;92738.28;2099160;28;20025;-87
2021/07/31 00:28:35;;;;;;;8.20;6.63;;;;;;;13.47;100.00;92737.97;2092175;28;20043;-85
2021/07/31 00:29:36;;;;;;;7.40;6.63;;;;;;;13.44;100.00;92738.88;2104534;28;20081;-85
2021/07/31 00:30:37;;;;;;;8.70;6.35;;;;;;;13.41;100.00;92734.38;2097582;28;20029;-85
2021/07/31 00:31:38;;;;;;;11.20;6.65;;;;;;;13.38;100.00;92737.94;2097839;28;20052;-86
2021/07/31 00:32:39;;;;;;;7.60;6.40;;;;;;;13.37;100.00;92728.41;2097776;28;20073;-86
2021/07/31 00:33:40;;;;;;;7.43;5.78;;;;;;;13.34;100.00;92731.97;2102820;28;20388;-86
2021/07/31 00:34:41;;;;;;;7.45;6.75;;;;;;;13.34;100.00;92737.31;2106438;28;20123;-86
2021/07/31 00:35:42;;;;;;;7.07;6.45;;;;;;;13.33;100.00;92731.22;2113024;28;20027;-86
2021/07/31 00:36:43;;;;;;;7.43;6.32;;;;;;;13.25;100.00;92745.34;2097441;28;20028;-86
2021/07/31 00:37:44;;;;;;;6.97;6.32;;;;;;;13.23;100.00;92742.38;2106466;28;20031;-85
2021/07/31 00:38:45;;;;;;;6.50;5.90;;;;;;;13.23;100.00;92742.38;2122582;27;20361;-86
2021/07/31 00:39:46;;;;;;;8.43;7.45;;;;;;;13.21;100.00;92739.34;2102259;28;20074;-87
2021/07/31 00:40:47;;;;;;;8.65;6.97;;;;;;;13.25;100.00;92742.66;2099804;28;20021;-87
2021/07/31 00:41:47;;;;;;;7.47;6.72;;;;;;;13.22;100.00;92738.16;2098396;28;20512;-86
2021/07/31 00:42:49;;;;;;;9.02;6.70;;;;;;;13.18;100.00;92732.94;2112062;28;20071;-87
2021/07/31 00:43:50;;;;;;;7.80;7.00;;;;;;;13.20;100.00;92727.84;2108456;28;20024;-87
2021/07/31 00:44:51;;;;;;;6.95;6.05;;;;;;;13.20;100.00;92732.47;2103384;28;20468;-85
2021/07/31 00:45:52;;;;;;;10.10;6.82;;;;;;;13.19;100.00;92728.31;2107809;28;20024;-86
2021/07/31 00:46:53;;;;;;;7.93;7.13;;;;;;;13.19;100.00;92726.38;2112537;28;20035;-86
2021/07/31 00:47:54;;;;;;;7.47;6.57;;;;;;;13.17;100.00;92727.97;2102317;28;20493;-86
2021/07/31 00:48:56;;;;;;;9.00;6.88;;;;;;;13.18;100.00;92732.19;2106525;28;20035;-86
2021/07/31 00:49:57;;;;;;;9.93;6.82;;;;;;;13.21;100.00;92725.91;2106227;28;20073;-86
2021/07/31 00:50:59;;;;;;;12.48;7.03;;;;;;;13.25;100.00;92729.25;2097572;28;20024;-86
2021/07/31 00:52:03;;;;;;;8.65;6.75;;;;;;;13.23;100.00;92728.94;2091834;28;20052;-86
2021/07/31 00:53:04;;;;;;;7.40;6.60;;;;;;;13.19;100.00;92734.41;2095016;28;20111;-87
2021/07/31 00:54:05;;;;;;;7.75;6.75;;;;;;;13.18;100.00;92729.50;2097887;28;20025;-86
2021/07/31 00:55:09;;;;;;;7.90;7.10;;;;;;;13.22;100.00;92741.63;2106655;28;20061;-86
2021/07/31 00:56:11;;;;;;;9.73;6.78;;;;;;;13.19;100.00;92736.34;2106830;28;20166;-86
2021/07/31 00:57:15;;;;;;;6.85;6.20;;;;;;;13.19;100.00;92742.47;2098188;28;20028;-87
2021/07/31 00:58:17;;;;;;;8.48;6.38;;;;;;;13.17;100.00;92731.44;2092985;28;20028;-86
2021/07/31 00:59:18;;;;;;;7.50;6.45;;;;;;;13.13;100.00;92733.50;2092017;28;20059;-86
2021/07/31 01:00:19;;;;;;;7.35;6.50;;;;;;;13.19;100.00;92731.72;2099134;28;20024;-85
2021/07/31 01:01:20;;;;;;;7.07;6.38;;;;;;;13.16;100.00;92727.25;2102161;28;20922;-87
2021/07/31 01:02:21;;;;;;;11.32;7.00;;;;;;;13.18;100.00;92730.25;2094539;28;20381;-87
2021/07/31 01:03:22;;;;;;;8.35;6.88;;;;;;;13.18;100.00;92732.19;2103160;28;20031;-87
2021/07/31 01:04:23;;;;;;;7.35;6.20;;;;;;;13.22;100.00;92724.75;2112301;28;20043;-86
2021/07/31 01:05:24;;;;;;;7.20;6.50;;;;;;;13.24;100.00;92733.13;2106075;28;20024;-87
2021/07/31 01:06:25;;;;;;;6.63;6.03;;;;;;;13.15;100.00;92727.69;2114846;28;20047;-86
2021/07/31 01:07:26;;;;;;;7.88;6.60;;;;;;;13.08;100.00;92726.78;2107749;28;20461;-87
2021/07/31 01:08:27;;;;;;;8.52;6.95;;;;;;;13.04;100.00;92726.16;2101298;28;20079;-87
2021/07/31 01:09:28;;;;;;;8.55;6.70;;;;;;;12.99;100.00;92732.06;2107955;28;20079;-85
2021/07/31 01:10:33;;;;;;;9.02;6.18;;;;;;;13.02;100.00;92720.47;2099142;28;20032;-86
2021/07/31 01:11:35;;;;;;;7.32;6.63;;;;;;;13.11;100.00;92719.78;2107161;28;20085;-85
2021/07/31 01:12:37;;;;;;;10.13;6.50;;;;;;;13.15;100.00;92725.75;2106329;28;20094;-88
2021/07/31 01:13:39;;;;;;;7.63;6.22;;;;;;;13.17;100.00;92711.88;2098122;28;20396;-86
2021/07/31 01:14:41;;;;;;;8.38;6.53;;;;;;;13.14;100.00;92715.47;2108985;28;20024;-86
2021/07/31 01:16:10;;;;;;;8.70;6.20;;;;;;;13.14;100.00;92712.78;2094428;28;20032;-87
2021/07/31 01:17:12;;;;;;;7.45;6.55;;;;;;;13.06;100.00;92718.41;2107759;27;20081;-85
2021/07/31 01:18:13;;;;;;;6.63;5.60;;;;;;;13.14;100.00;92715.47;2114779;28;20066;-86
2021/07/31 01:19:14;;;;;;;7.65;6.70;;;;;;;13.14;100.00;92712.78;2097990;28;20238;-86
2021/07/31 01:20:15;;;;;;;10.23;6.88;;;;;;;13.15;100.00;92711.59;2094081;28;20016;-85
2021/07/31 01:21:39;;;;;;;7.00;6.30;;;;;;;13.08;100.00;92718.72;2107836;27;20028;-86
2021/07/31 01:22:40;;;;;;;6.90;5.75;;;;;;;13.05;100.00;92724.97;2111228;28;20051;-86
2021/07/31 01:23:41;;;;;;;8.38;6.72;;;;;;;13.03;100.00;92721.22;2108887;28;20471;-86
2021/07/31 01:24:42;;;;;;;10.05;6.70;;;;;;;13.02;100.00;92725.84;2113839;28;20119;-86
2021/07/31 01:25:42;;;;;;;7.57;6.30;;;;;;;13.01;100.00;92731.66;2092892;28;20522;-87
2021/07/31 01:26:46;;;;;;;8.10;6.07;;;;;;;12.98;100.00;92725.22;2097924;28;20025;-85
2021/07/31 01:27:47;;;;;;;7.38;6.18;;;;;;;13.02;100.00;92733.16;2098204;28;20031;-87
2021/07/31 01:28:48;;;;;;;6.47;5.63;;;;;;;13.04;100.00;92730.78;2097922;28;20805;-87
2021/07/31 01:29:49;;;;;;;6.80;6.20;;;;;;;13.06;100.00;92731.09;2106103;28;20081;-86
2021/07/31 01:30:50;;;;;;;6.80;6.18;;;;;;;13.07;100.00;92732.56;2111545;28;20050;-88
2021/07/31 01:31:51;;;;;;;6.93;6.25;;;;;;;13.10;100.00;92732.44;2097971;28;20032;-87
2021/07/31 01:32:53;;;;;;;6.65;6.07;;;;;;;13.08;100.00;92724.09;2098118;28;20120;-86
2021/07/31 01:33:53;;;;;;;7.95;6.50;;;;;;;13.05;100.00;92730.34;2096188;28;20067;-87
2021/07/31 01:34:54;;;;;;;6.88;6.28;;;;;;;13.04;100.00;92731.53;2106186;28;20553;-86
2021/07/31 01:35:55;;;;;;;6.43;5.47;;;;;;;13.07;100.00;92727.94;2103957;28;20031;-87
2021/07/31 01:36:56;;;;;;;7.88;5.93;;;;;;;13.12;100.00;92726.63;2097760;28;20495;-87
2021/07/31 01:37:57;;;;;;;7.03;6.20;;;;;;;13.15;100.00;92730.38;2106163;28;20071;-86
2021/07/31 01:38:59;;;;;;;7.53;6.70;;;;;;;13.23;100.00;92731.63;2106121;28;20074;-88
2021/07/31 01:40:00;;;;;;;6.22;5.68;;;;;;;13.27;100.00;92726.88;2101920;28;20024;-87
2021/07/31 01:41:01;;;;;;;7.28;6.30;;;;;;;13.29;100.00;92727.16;2099769;28;20058;-86
2021/07/31 01:42:06;;;;;;;6.65;6.05;;;;;;;13.35;100.00;92728.84;2099703;28;20016;-87
2021/07/31 01:43:09;;;;;;;6.50;5.63;;;;;;;13.39;100.00;92722.56;2104186;28;20028;-86
2021/07/31 01:44:11;;;;;;;8.52;5.95;;;;;;;13.44;100.00;92719.34;2100716;28;20020;-86
2021/07/31 01:45:12;;;;;;;8.73;6.18;;;;;;;13.45;100.00;92724.25;2108350;28;20084;-88
2021/07/31 01:46:13;;;;;;;6.18;5.20;;;;;;;13.52;100.00;92729.34;2106239;28;20024;-86
2021/07/31 01:47:14;;;;;;;6.57;5.78;;;;;;;13.54;100.00;92724.28;2110438;28;20124;-86
2021/07/31 01:48:15;;;;;;;6.15;5.53;;;;;;;13.54;100.00;92728.91;2112074;28;20061;-86
2021/07/31 01:49:16;;;;;;;8.02;5.75;;;;;;;13.59;100.00;92725.63;2099822;28;20024;-87
2021/07/31 01:50:17;;;;;;;5.55;5.00;;;;;;;13.51;100.00;92733.22;2103554;28;20019;-87
2021/07/31 01:51:18;;;;;;;7.60;5.60;;;;;;;13.60;100.00;92729.81;2095319;28;20021;-87
2021/07/31 01:52:19;;;;;;;6.13;5.20;;;;;;;13.59;100.00;92725.63;2092114;28;20125;-85
2021/07/31 01:53:20;;;;;;;7.45;4.82;;;;;;;13.60;100.00;92724.44;2101891;28;20027;-86
2021/07/31 01:54:21;;;;;;;5.15;4.65;;;;;;;13.63;100.00;92728.19;2094495;28;20103;-85
2021/07/31 01:55:22;;;;;;;5.68;5.00;;;;;;;13.68;100.00;92725.63;2106049;28;20020;-86
2021/07/31 01:56:23;;;;;;;5.20;4.70;;;;;;;13.69;100.00;92727.13;2105272;28;20020;-87
2021/07/31 01:57:24;;;;;;;6.95;4.57;;;;;;;13.68;100.00;92727.59;2098813;28;20076;-87
2021/07/31 01:58:25;;;;;;;5.57;4.65;;;;;;;13.63;100.00;92734.28;2098086;28;20025;-87
2021/07/31 01:59:26;;;;;;;5.78;4.80;;;;;;;13.60;100.00;92722.47;2101629;28;20070;-86
2021/07/31 02:00:27;;;;;;;5.30;4.80;;;;;;;13.61;100.00;92723.25;2103271;28;20069;-86
2021/07/31 02:01:28;;;;;;;5.70;4.60;;;;;;;13.56;100.00;92724.59;2101444;28;20020;-86
2021/07/31 02:02:29;;;;;;;5.78;4.40;;;;;;;13.54;100.00;92726.22;2103154;28;20027;-86
2021/07/31 02:03:30;;;;;;;6.88;4.68;;;;;;;13.52;100.00;92723.97;2089268;28;20029;-86
2021/07/31 02:06:35;;;;;;;4.35;3.95;;;;;;;13.47;100.00;92724.53;2135632;27;20166;-87
2021/07/31 02:07:36;;;;;;;5.00;4.50;;;;;;;13.49;100.00;92729.47;2114544;28;20165;-85
2021/07/31 02:08:37;;;;;;;4.38;3.92;;;;;;;13.47;100.00;92729.16;2096677;28;20419;-85
2021/07/31 02:09:38;;;;;;;5.82;4.15;;;;;;;13.45;100.00;92726.19;2112078;27;20097;-84
2021/07/31 02:10:39;;;;;;;5.75;4.22;;;;;;;13.36;100.00;92726.91;2107840;28;20469;-85
2021/07/31 02:11:40;;;;;;;4.85;4.28;;;;;;;13.31;100.00;92732.84;2111280;28;20030;-85
2021/07/31 02:12:41;;;;;;;6.15;4.13;;;;;;;13.31;100.00;92733.59;2117395;28;20030;-86
2021/07/31 02:13:42;;;;;;;4.70;4.20;;;;;;;13.31;100.00;92725.56;2104760;28;20024;-86
2021/07/31 02:14:43;;;;;;;6.38;4.32;;;;;;;13.32;100.00;92734.34;2109271;28;20034;-86
2021/07/31 02:15:45;;;;;;;4.57;4.18;;;;;;;13.31;100.00;92722.88;2108506;28;20056;-86
2021/07/31 02:16:46;;;;;;;4.18;3.83;;;;;;;13.26;100.00;92725.38;2109431;28;20069;-85
2021/07/31 02:17:47;;;;;;;5.22;4.25;;;;;;;13.27;100.00;92724.19;2112987;28;20101;-84
2021/07/31 02:18:48;;;;;;;4.75;4.35;;;;;;;13.16;100.00;92735.28;2110905;28;20024;-85
2021/07/31 02:19:48;;;;;;;4.70;4.28;;;;;;;13.08;100.00;92731.38;2117980;28;20113;-85
2021/07/31 02:20:49;;;;;;;6.63;4.20;;;;;;;13.10;100.00;92734.38;2095709;28;20017;-85
2021/07/31 02:21:50;;;;;;;5.00;4.00;;;;;;;13.09;100.00;92732.88;2102470;28;20079;-85
2021/07/31 02:22:51;;;;;;;5.95;4.05;;;;;;;13.06;100.00;92728.41;2098495;28;20033;-88
2021/07/31 02:23:52;;;;;;;4.93;3.67;;;;;;;12.99;100.00;92731.34;2097231;28;20024;-85
2021/07/31 02:24:53;;;;;;;7.03;3.92;;;;;;;13.08;100.00;92731.38;2103625;28;20477;-85
2021/07/31 02:25:55;;;;;;;4.90;4.30;;;;;;;13.02;100.00;92725.84;2091163;28;20029;-86
2021/07/31 02:26:56;;;;;;;4.40;4.00;;;;;;;12.95;100.00;92738.75;2095231;28;20074;-86
2021/07/31 02:27:57;;;;;;;4.55;4.15;;;;;;;12.97;100.00;92728.34;2102979;28;20485;-86
2021/07/31 02:28:58;;;;;;;4.82;3.88;;;;;;;12.94;100.00;92726.53;2099322;28;20035;-85
2021/07/31 02:29:59;;;;;;;4.78;4.10;;;;;;;12.94;100.00;92735.34;2111228;28;20024;-86
2021/07/31 02:31:00;;;;;;;7.05;4.40;;;;;;;12.86;100.00;92731.41;2117551;28;20016;-87
2021/07/31 02:32:01;;;;;;;6.05;4.15;;;;;;;12.78;100.00;92732.88;2098943;28;20020;-84
2021/07/31 02:33:02;;;;;;;4.60;4.15;;;;;;;12.75;100.00;92729.13;2102424;28;20110;-86
2021/07/31 02:34:04;;;;;;;4.40;4.00;;;;;;;12.72;100.00;92732.69;2094152;28;20025;-85
2021/07/31 02:35:06;;;;;;;7.00;4.22;;;;;;;12.66;100.00;92731.75;2096295;28;20028;-86
2021/07/31 02:36:08;;;;;;;5.45;4.28;;;;;;;12.58;100.00;92725.16;2096194;28;20029;-87
2021/07/31 02:37:09;;;;;;;4.90;3.95;;;;;;;12.53;100.00;92729.16;2102806;28;20031;-86
2021/07/31 02:38:10;;;;;;;4.80;4.18;;;;;;;12.49;100.00;92728.53;2112165;28;20073;-86
2021/07/31 02:39:11;;;;;;;5.95;3.88;;;;;;;12.48;100.00;92737.75;2115273;28;20429;-85
2021/07/31 02:40:12;;;;;;;4.32;3.92;;;;;;;12.40;100.00;92736.50;2104146;28;20070;-85
2021/07/31 02:41:12;;;;;;;8.05;4.20;;;;;;;12.32;100.00;92738.69;2096249;28;20052;-85
2021/07/31 02:42:15;;;;;;;5.00;4.05;;;;;;;12.34;100.00;92735.59;2095296;28;20052;-86
2021/07/31 02:43:16;;;;;;;4.70;4.03;;;;;;;12.34;100.00;92735.59;2094617;28;20031;-86
2021/07/31 02:44:17;;;;;;;4.88;3.95;;;;;;;12.29;100.00;92736.13;2094375;28;20025;-85
2021/07/31 02:45:18;;;;;;;6.03;3.80;;;;;;;12.23;100.00;92730.56;2100067;28;20552;-85
2021/07/31 02:46:19;;;;;;;7.18;3.63;;;;;;;12.20;100.00;92726.06;2106298;28;20047;-86
2021/07/31 02:47:20;;;;;;;4.35;3.95;;;;;;;12.16;100.00;92730.84;2096039;28;20170;-88
2021/07/31 02:48:21;;;;;;;7.40;4.25;;;;;;;12.18;100.00;92728.47;2100861;28;20032;-85
2021/07/31 02:49:22;;;;;;;5.45;3.95;;;;;;;12.08;100.00;92732.25;2111325;28;20058;-86
2021/07/31 02:50:23;;;;;;;5.63;4.60;;;;;;;12.12;100.00;92732.13;2104335;28;20035;-87
2021/07/31 02:51:24;;;;;;;4.70;4.10;;;;;;;12.05;100.00;92733.84;2094475;28;20496;-86
2021/07/31 02:52:25;;;;;;;4.40;3.92;;;;;;;12.05;100.00;92733.84;2096050;28;20032;-85
2021/07/31 02:53:26;;;;;;;4.13;3.70;;;;;;;12.02;100.00;92724.00;2101086;28;20115;-86
2021/07/31 02:54:27;;;;;;;5.78;4.28;;;;;;;11.98;100.00;92727.97;2098754;28;20055;-86
2021/07/31 02:55:31;;;;;;;5.15;3.80;;;;;;;11.95;100.00;92729.63;2088088;28;20083;-86
2021/07/31 02:56:33;;;;;;;6.18;4.30;;;;;;;11.94;100.00;92725.44;2090906;28;20036;-85
2021/07/31 02:57:34;;;;;;;6.25;3.70;;;;;;;11.80;100.00;92729.28;2090287;28;20021;-86
2021/07/31 02:58:35;;;;;;;5.00;4.28;;;;;;;11.84;100.00;92718.50;2100415;28;20075;-85
2021/07/31 02:59:36;;;;;;;4.75;4.13;;;;;;;11.83;100.00;92725.03;2104545;28;20024;-86
2021/07/31 03:00:37;;;;;;;4.30;3.88;;;;;;;11.79;100.00;92719.03;2095821;28;20016;-85
2021/07/31 03:01:38;;;;;;;6.55;3.72;;;;;;;11.80;100.00;92726.59;2099478;28;20027;-85
2021/07/31 03:02:39;;;;;;;3.88;3.58;;;;;;;11.79;100.00;92724.38;2099360;28;20426;-83
2021/07/31 03:03:39;;;;;;;8.60;3.90;;;;;;;11.64;100.00;92724.09;2099948;28;20028;-85
2021/07/31 03:04:40;;;;;;;4.72;3.72;;;;;;;11.74;100.00;92727.59;2113992;28;20031;-86
2021/07/31 03:05:41;;;;;;;4.72;3.65;;;;;;;11.72;100.00;92720.00;2115756;28;20077;-85
2021/07/31 03:06:42;;;;;;;4.68;3.85;;;;;;;11.75;100.00;92719.13;2105388;28;20062;-85
2021/07/31 03:07:43;;;;;;;7.55;3.92;;;;;;;11.74;100.00;92709.59;2103299;28;20024;-85
2021/07/31 03:08:44;;;;;;;3.90;3.60;;;;;;;11.75;100.00;92715.69;2112269;28;20843;-85
2021/07/31 03:09:46;;;;;;;8.25;4.10;;;;;;;11.62;100.00;92718.41;2110932;28;20020;-84
2021/07/31 03:10:56;;;;;;;4.63;4.13;;;;;;;11.63;100.00;92722.56;2107707;28;20032;-85
2021/07/31 03:11:57;;;;;;;6.35;3.67;;;;;;;11.66;100.00;92718.31;2102870;28;20132;-84
2021/07/31 03:12:58;;;;;;;5.32;3.70;;;;;;;11.62;100.00;92712.31;2101968;28;20025;-84
2021/07/31 03:13:59;;;;;;;4.47;4.07;;;;;;;11.65;100.00;92719.47;2097794;28;20029;-86
2021/07/31 03:15:00;;;;;;;5.75;4.20;;;;;;;11.63;100.00;92716.47;2101864;28;20074;-84
2021/07/31 03:16:01;;;;;;;5.10;4.18;;;;;;;11.62;100.00;92713.06;2106153;28;20016;-85
2021/07/31 03:17:02;;;;;;;5.07;3.92;;;;;;;11.62;100.00;92715.72;2104114;28;20044;-84
2021/07/31 03:18:03;;;;;;;4.30;3.90;;;;;;;11.59;100.00;92712.00;2089578;28;20572;-85
2021/07/31 03:19:04;;;;;;;4.80;3.75;;;;;;;11.56;100.00;92715.53;2096401;28;20039;-84
2021/07/31 03:20:05;;;;;;;4.45;3.88;;;;;;;11.46;100.00;92723.91;2107027;28;20020;-85
2021/07/31 03:21:06;;;;;;;5.85;3.40;;;;;;;11.46;100.00;92718.56;2107040;28;20016;-84
2021/07/31 03:22:07;;;;;;;6.00;3.60;;;;;;;11.50;100.00;92714.59;2095596;28;20983;-85
2021/07/31 03:23:08;;;;;;;4.90;3.75;;;;;;;11.48;100.00;92722.28;2095185;28;20645;-85
2021/07/31 03:24:09;;;;;;;4.95;4.07;;;;;;;11.47;100.00;92725.41;2092603;28;20078;-83
2021/07/31 03:25:10;;;;;;;4.88;4.05;;;;;;;11.48;100.00;92722.28;2086271;28;20482;-84
2021/07/31 03:26:11;;;;;;;4.63;3.85;;;;;;;11.44;100.00;92710.94;2088313;28;20390;-85
2021/07/31 03:27:12;;;;;;;4.20;3.80;;;;;;;11.37;100.00;92724.56;2100328;28;20028;-85
2021/07/31 03:28:14;;;;;;;5.70;3.97;;;;;;;11.32;100.00;92719.72;2109359;28;20024;-85
2021/07/31 03:29:15;;;;;;;4.18;3.67;;;;;;;11.32;100.00;92717.06;2098672;28;20016;-84
2021/07/31 03:30:16;;;;;;;4.82;3.70;;;;;;;11.28;100.00;92725.22;2100460;28;20027;-86
2021/07/31 03:31:18;;;;;;;7.25;3.83;;;;;;;11.22;100.00;92718.88;2102282;28;20081;-86
2021/07/31 03:32:19;;;;;;;5.00;3.75;;;;;;;11.25;100.00;92717.28;2089789;28;20025;-86
2021/07/31 03:33:20;;;;;;;3.67;3.38;;;;;;;11.20;100.00;92723.19;2098379;28;20480;-85
2021/07/31 03:34:21;;;;;;;3.92;3.20;;;;;;;11.22;100.00;92720.81;2098602;28;20038;-85
2021/07/31 03:35:22;;;;;;;4.72;3.35;;;;;;;11.23;100.00;92724.97;2102221;28;20020;-85
2021/07/31 03:36:23;;;;;;;6.10;3.65;;;;;;;11.16;100.00;92719.88;2105039;28;20081;-85
2021/07/31 03:37:24;;;;;;;3.92;3.60;;;;;;;11.17;100.00;92724.03;2100522;28;20024;-88
2021/07/31 03:38:25;;;;;;;3.83;3.42;;;;;;;11.14;100.00;92728.31;2101330;28;20030;-86
2021/07/31 03:39:26;;;;;;;4.32;3.78;;;;;;;11.16;100.00;92734.00;2105591;28;20086;-85
2021/07/31 03:40:27;;;;;;;7.43;3.58;;;;;;;11.09;100.00;92734.19;2100657;28;20020;-86
2021/07/31 03:41:28;;;;;;;3.92;3.30;;;;;;;11.05;100.00;92731.63;2087530;28;20090;-86
2021/07/31 03:42:29;;;;;;;4.07;3.67;;;;;;;11.04;100.00;92722.09;2101103;28;20047;-85
2021/07/31 03:43:30;;;;;;;3.58;3.28;;;;;;;11.04;100.00;92730.13;2111382;28;20051;-87
2021/07/31 03:44:31;;;;;;;5.65;3.45;;;;;;;11.10;100.00;92724.97;2100375;28;20031;-86
2021/07/31 03:45:32;;;;;;;8.13;4.05;;;;;;;11.05;100.00;92715.56;2090245;28;20020;-85
2021/07/31 03:46:33;;;;;;;5.85;3.67;;;;;;;11.05;100.00;92726.25;2098439;28;20155;-85
2021/07/31 03:47:34;;;;;;;7.97;3.60;;;;;;;11.07;100.00;92720.50;2101429;28;20089;-85
2021/07/31 03:48:35;;;;;;;3.88;3.55;;;;;;;11.07;100.00;92720.50;2104451;28;20016;-85
2021/07/31 03:49:35;;;;;;;4.47;3.70;;;;;;;11.01;100.00;92724.88;2105296;28;20469;-87
2021/07/31 03:50:40;;;;;;;3.80;3.45;;;;;;;10.98;100.00;92721.16;2112498;28;20050;-85
2021/07/31 03:51:41;;;;;;;4.53;3.53;;;;;;;11.01;100.00;92717.59;2105779;28;20489;-85
2021/07/31 03:52:42;;;;;;;4.00;3.53;;;;;;;11.02;100.00;92723.72;2089955;28;20074;-84
2021/07/31 03:53:43;;;;;;;5.18;3.58;;;;;;;10.98;100.00;92718.47;2098167;28;20577;-85
2021/07/31 03:54:44;;;;;;;3.88;3.20;;;;;;;10.98;100.00;92718.47;2091247;28;20036;-85
2021/07/31 03:55:48;;;;;;;5.88;3.75;;;;;;;10.95;100.00;92718.56;2086317;28;20021;-85
2021/07/31 03:56:49;;;;;;;3.92;3.63;;;;;;;11.00;100.00;92718.03;2096444;28;20033;-85
2021/07/31 03:57:50;;;;;;;5.40;3.42;;;;;;;10.97;100.00;92716.94;2093254;28;20063;-84
2021/07/31 03:58:53;;;;;;;4.25;3.80;;;;;;;10.97;100.00;92716.22;2102402;28;20035;-85
2021/07/31 03:59:54;;;;;;;5.22;3.30;;;;;;;10.96;100.00;92720.06;2097414;28;20032;-87
2021/07/31 04:00:55;;;;;;;5.32;3.45;;;;;;;10.89;100.00;92721.03;2093094;28;20035;-87
2021/07/31 04:01:56;;;;;;;4.85;3.30;;;;;;;10.93;100.00;92728.94;2088973;28;20029;-85
2021/07/31 04:02:57;;;;;;;5.32;3.20;;;;;;;10.86;100.00;92721.88;2098008;28;20021;-85
2021/07/31 04:03:58;;;;;;;3.78;3.38;;;;;;;10.90;100.00;92722.53;2106618;28;20039;-85
2021/07/31 04:04:59;;;;;;;6.35;3.63;;;;;;;10.92;100.00;92722.84;2105375;28;20465;-85
2021/07/31 04:06:00;;;;;;;4.30;3.85;;;;;;;10.89;100.00;92726.38;2093427;28;20036;-85
2021/07/31 04:07:01;;;;;;;3.78;3.33;;;;;;;10.89;100.00;92729.06;2086217;28;20603;-85
2021/07/31 04:08:02;;;;;;;3.80;3.50;;;;;;;10.85;100.00;92725.75;2098099;28;20032;-85
2021/07/31 04:09:05;;;;;;;5.10;3.53;;;;;;;10.81;100.00;92727.75;2105545;28;20024;-85
2021/07/31 04:10:06;;;;;;;5.57;3.95;;;;;;;10.79;100.00;92738.88;2101850;28;20107;-85
2021/07/31 04:11:07;;;;;;;4.00;3.45;;;;;;;10.80;100.00;92734.28;2113063;28;20077;-84
2021/07/31 04:12:08;;;;;;;8.88;3.92;;;;;;;10.81;100.00;92736.53;2099786;28;20054;-84
2021/07/31 04:13:09;;;;;;;5.72;3.08;;;;;;;10.82;100.00;92734.59;2097928;28;20032;-85
2021/07/31 04:14:12;;;;;;;3.55;3.25;;;;;;;10.80;100.00;92734.28;2089282;28;20024;-87
2021/07/31 04:15:13;;;;;;;3.58;3.28;;;;;;;10.84;100.00;92733.00;2085890;28;20560;-86
2021/07/31 04:16:14;;;;;;;3.60;3.25;;;;;;;10.84;100.00;92729.56;2092088;28;20051;-84
2021/07/31 04:17:15;;;;;;;3.85;3.15;;;;;;;10.86;100.00;92727.22;2105125;28;20024;-84
2021/07/31 04:18:16;;;;;;;3.65;3.28;;;;;;;10.81;100.00;92725.09;2097394;28;20016;-84
2021/07/31 04:19:17;;;;;;;5.03;3.70;;;;;;;10.88;100.00;92730.22;2114370;28;20081;-86
2021/07/31 04:20:18;;;;;;;6.10;3.35;;;;;;;10.84;100.00;92737.59;2117439;27;20016;-87
2021/07/31 04:21:19;;;;;;;6.93;3.40;;;;;;;10.80;100.00;92743.06;2105209;28;20107;-86
2021/07/31 04:22:20;;;;;;;4.13;3.72;;;;;;;10.83;100.00;92738.78;2097538;28;20404;-84
2021/07/31 04:23:21;;;;;;;3.95;3.35;;;;;;;10.84;100.00;92734.91;2105336;28;20019;-86
2021/07/31 04:24:23;;;;;;;5.68;3.50;;;;;;;10.81;100.00;92741.88;2096192;28;20028;-86
2021/07/31 04:25:24;;;;;;;4.50;3.33;;;;;;;10.78;100.00;92737.38;2097875;28;20040;-88
2021/07/31 04:26:25;;;;;;;3.83;3.47;;;;;;;10.77;100.00;92748.50;2093891;28;20017;-86
2021/07/31 04:27:26;;;;;;;5.88;3.60;;;;;;;10.77;100.00;92749.25;2090023;28;20017;-85
2021/07/31 04:28:27;;;;;;;5.50;3.60;;;;;;;10.80;100.00;92747.66;2104751;28;20016;-88
2021/07/31 04:29:28;;;;;;;7.30;3.53;;;;;;;10.81;100.00;92749.16;2103371;28;20031;-85
2021/07/31 04:30:31;;;;;;;4.28;3.88;;;;;;;10.82;100.00;92750.66;2098203;28;20024;-86
2021/07/31 04:31:32;;;;;;;4.47;4.05;;;;;;;10.84;100.00;92745.59;2091938;28;20060;-85
2021/07/31 04:32:33;;;;;;;5.13;4.50;;;;;;;10.85;100.00;92741.78;2085557;28;20057;-84
2021/07/31 04:33:34;;;;;;;6.72;4.05;;;;;;;10.87;100.00;92741.34;2081579;28;20401;-85
2021/07/31 04:34:35;;;;;;;4.80;4.25;;;;;;;10.84;100.00;92740.25;2096331;28;20024;-84
2021/07/31 04:35:36;;;;;;;7.50;4.22;;;;;;;10.85;100.00;92749.81;2094712;28;20048;-84
2021/07/31 04:36:37;;;;;;;5.10;3.78;;;;;;;10.87;100.00;92747.44;2089746;28;20016;-85
2021/07/31 04:37:38;;;;;;;5.18;4.20;;;;;;;10.86;100.00;92745.19;2099176;28;20020;-85
2021/07/31 04:38:39;;;;;;;7.95;3.80;;;;;;;10.85;100.00;92744.44;2107373;28;20020;-85
2021/07/31 04:39:40;;;;;;;6.65;4.20;;;;;;;10.87;100.00;92750.13;2096464;28;20025;-84
2021/07/31 04:40:41;;;;;;;6.10;3.80;;;;;;;10.85;100.00;92752.47;2087250;28;20074;-84
2021/07/31 04:41:42;;;;;;;4.72;4.00;;;;;;;10.87;100.00;92752.78;2091168;28;20026;-85
2021/07/31 04:42:43;;;;;;;8.43;4.28;;;;;;;10.88;100.00;92756.94;2102851;28;20399;-85
2021/07/31 04:43:44;;;;;;;5.68;4.30;;;;;;;10.89;100.00;92755.03;2098166;28;20039;-85
2021/07/31 04:44:45;;;;;;;7.57;4.28;;;;;;;10.90;100.00;92754.63;2092076;28;20506;-85
2021/07/31 04:45:46;;;;;;;8.55;4.78;;;;;;;10.91;100.00;92756.09;2084933;28;20021;-85
2021/07/31 04:46:47;;;;;;;4.38;3.97;;;;;;;10.89;100.00;92741.66;2091680;28;20016;-84